• Join FlightAware (Why Join?)
  • Login
  • US Flag 
05:26AM EDT


 

Airport Tracker/Info


-or-


 

Live Flight TrackerFlight Track Log ✈ UAL258 ✈ 20-May-2013 ✈ KORD - KLAS

Flight Track Log - Related Links

Times and Time Zones

All times are in EDT time to prevent confusion due to time zone crossing. See the UAL258 flight status page for this flight to view local times or setup timezone preferences in your user account.

Time Position Orientation Groundspeed Altitude Reporting Facility
EDT Latitude Longitude Course Direction KTS MPH feet Rate Location/Type
09:05AM 41.9667 -88.0000 270° West 186 214 2,800  Level Chicago TRACON
09:07AM 41.9667 -88.3679 270° West  Level FlightAware Approximate
09:07AM 41.9511 -88.1450 262° West 225 259 5,000  Level Chicago Center
09:08AM 41.9667 -88.5238 270° West  Level FlightAware Approximate
09:08AM 41.9600 -88.2372 277° West 247 284 7,700  Level Chicago Center
09:09AM 41.9668 -88.6798 270° West  Level FlightAware Approximate
09:09AM 41.9728 -88.3314 280° West 257 296 10,200  Level Chicago Center
09:10AM 41.9668 -88.8357 270° West  Level FlightAware Approximate
09:10AM 41.9878 -88.4597 279° West 284 327 11,900  Level Chicago Center
09:11AM 41.9669 -88.9917 270° West  Level FlightAware Approximate
09:11AM 42.0003 -88.5839 278° West 324 373 13,800  Level Chicago Center
09:12AM 42.0122 -88.7114 277° West 342 394 15,900 1,860 Climbing Chicago Center
09:13AM 42.0217 -88.8447 275° West 354 407 17,700 1,980 Climbing Chicago Center
09:14AM 42.0339 -89.0103 276° West 370 426 20,000 1,800 Climbing Chicago Center
09:15AM 42.0442 -89.1511 276° West 381 438 21,500 1,380 Climbing Chicago Center
09:16AM 42.0556 -89.2981 276° West 395 455 22,900 1,200 Climbing Chicago Center
09:17AM 42.0675 -89.4458 276° West 402 463 24,100 1,200 Climbing Chicago Center
09:19AM 42.0803 -89.6186 276° West 413 475 25,400 1,140 Climbing Chicago Center
09:20AM 42.0928 -89.7742 276° West 416 479 26,500 960 Climbing Chicago Center
09:21AM 42.1064 -89.9378 276° West 428 493 27,500 900 Climbing Chicago Center
09:22AM 42.1192 -90.1011 276° West 438 504 28,400 900 Climbing Chicago Center
09:23AM 42.1328 -90.2661 276° West 445 512 29,400 1,080 Climbing Chicago Center
09:24AM 42.1458 -90.4317 276° West 448 516 30,700 1,200 Climbing Chicago Center
09:25AM 42.1619 -90.6306 276° West 447 514 32,000 1,020 Climbing Chicago Center
09:26AM 42.1761 -90.7961 277° West 448 516 32,900 780 Climbing Chicago Center
09:27AM 42.1900 -90.9636 276° West 452 520 33,700 480 Climbing Chicago Center
09:28AM 42.2028 -91.1328 276° West 454 522 34,000 120 Climbing Chicago Center
09:29AM 42.2136 -91.3019 275° West 455 524 34,000  Level Chicago Center
09:30AM 42.2261 -91.4719 276° West 455 524 34,000  Level Chicago Center
09:31AM 42.2408 -91.6722 276° West 449 517 34,100  Climbing Chicago Center
09:32AM 42.2508 -91.8369 275° West 444 511 34,000 -60 Descending Chicago Center
09:33AM 42.2625 -92.0006 276° West 440 506 34,000  Level Chicago Center
09:34AM 42.2728 -92.1669 275° West 445 512 34,000  Level Chicago Center
09:35AM 42.2844 -92.3319 276° West 440 506 34,000  Level Minneapolis Center
09:36AM 42.2939 -92.4958 275° West 439 505 34,100  Climbing Minneapolis Center
09:37AM 42.3039 -92.6567 275° West 436 502 34,000 -60 Descending Minneapolis Center
09:38AM 42.3133 -92.8169 275° West 433 498 34,000  Level Minneapolis Center
09:39AM 42.3225 -92.9781 274° West 433 498 34,100  Climbing Minneapolis Center
09:40AM 42.3317 -93.1375 275° West 430 495 34,000 -60 Descending Minneapolis Center
09:41AM 42.3433 -93.3256 275° West 422 486 34,000  Level Minneapolis Center
09:42AM 42.3514 -93.4828 274° West 423 487 34,000  Level Minneapolis Center
09:43AM 42.3592 -93.6414 274° West 425 489 34,000  Level Minneapolis Center
09:44AM 42.3667 -93.7986 274° West 423 487 34,100  Climbing Minneapolis Center
09:45AM 42.3758 -93.9556 275° West 423 487 34,000 -60 Descending Minneapolis Center
09:46AM 42.3811 -94.0808 273° West 420 483 34,000  Level Minneapolis Center
09:47AM 42.3911 -94.2950 274° West 419 482 34,000  Level Minneapolis Center
09:48AM 42.3981 -94.4506 274° West 417 480 34,000  Level Minneapolis Center
09:49AM 42.4061 -94.6069 274° West 418 481 34,000  Level Minneapolis Center
09:50AM 42.4117 -94.7631 273° West 418 481 34,000 -360 Level Minneapolis Center
09:51AM 42.4178 -94.9186 273° West 416 479 33,300 -840 Descending Minneapolis Center
09:52AM 42.4233 -95.0764 273° West 419 482 32,300 -660 Descending Minneapolis Center
09:53AM 42.4317 -95.2703 273° West 427 491 32,000 -180 Descending Minneapolis Center
09:54AM 42.4372 -95.4350 273° West 434 499 32,000  Level Minneapolis Center
09:55AM 42.4439 -95.6008 273° West 441 507 32,000  Level Minneapolis Center
09:56AM 42.4486 -95.7606 272° West 430 495 32,000  Level Minneapolis Center
09:58AM 42.4542 -95.9233 273° West 433 498 32,000  Level Minneapolis Center
09:59AM 42.4597 -96.1178 272° West 432 497 32,000  Level Minneapolis Center
10:00AM 42.4639 -96.2769 272° West 427 491 32,000  Level Minneapolis Center
10:01AM 42.4708 -96.5033 272° West 429 494 32,000  Level Minneapolis Center
10:02AM 42.4750 -96.6642 272° West 429 494 32,000  Level Minneapolis Center
10:03AM 42.4783 -96.8286 272° West 435 501 32,000  Level Minneapolis Center
10:04AM 42.4825 -96.9919 272° West 437 503 32,100  Climbing Minneapolis Center
10:05AM 42.4858 -97.1564 272° West 438 504 32,000 -60 Descending Minneapolis Center
10:06AM 42.4886 -97.3206 271° West 437 503 32,000  Level Minneapolis Center
10:07AM 42.4922 -97.4828 272° West 435 501 32,000  Level Minneapolis Center
10:08AM 42.4958 -97.6794 271° West 436 502 32,000  Level Minneapolis Center
10:09AM 42.4981 -97.8450 271° West 439 505 32,000  Level Minneapolis Center
10:10AM 42.4950 -98.0067 269° West 436 502 32,000  Level Minneapolis Center
10:11AM 42.4656 -98.1672 256° West 441 507 32,000  Level Minneapolis Center
10:12AM 42.4306 -98.3247 253° West 441 507 32,000  Level Minneapolis Center
10:13AM 42.3964 -98.4861 254° West 443 510 32,000  Level Minneapolis Center
10:14AM 42.3608 -98.6453 253° West 444 511 32,000  Level Minneapolis Center
10:15AM 42.3183 -98.8406 254° West 450 518 32,100  Climbing Minneapolis Center
10:16AM 42.2825 -99.0019 253° West 450 518 32,000 -60 Descending Minneapolis Center
10:17AM 42.2469 -99.1625 253° West 449 517 32,000  Level Minneapolis Center
10:19AM 42.2267 -99.3286 261° West 449 517 32,000  Level Minneapolis Center
10:19AM 42.2214 -99.3953 264° West 450 518 32,000  Level Denver Center
10:20AM 42.2094 -99.5617 265° West 448 516 32,000  Level Denver Center
10:21AM 42.1964 -99.7303 264° West 449 517 32,000  Level Denver Center
10:22AM 42.1822 -99.9186 264° West 452 520 32,000  Level Denver Center
10:23AM 42.1689 -100.0783 264° West 449 517 32,000  Level Denver Center
10:24AM 42.1539 -100.2656 264° West 451 519 32,000 240 Level Denver Center
10:25AM 42.1414 -100.4231 264° West 445 512 32,600 720 Climbing Denver Center
10:26AM 42.1256 -100.6094 264° West 449 517 33,500 660 Climbing Denver Center
10:27AM 42.1117 -100.7719 263° West 456 525 34,000 240 Climbing Denver Center
10:28AM 42.0989 -100.9303 264° West 447 514 34,000  Level Denver Center
10:29AM 42.0817 -101.1192 263° West 455 524 34,000  Level Denver Center
10:30AM 42.0681 -101.2792 264° West 452 520 34,000  Level Denver Center
10:31AM 42.0506 -101.4650 263° West 450 518 34,000  Level Denver Center
10:32AM 42.0356 -101.6253 263° West 452 520 34,000  Level Denver Center
10:33AM 42.0183 -101.8089 263° West 447 514 34,000  Level Denver Center
10:34AM 42.0028 -101.9658 262° West 444 511 34,000  Level Denver Center
10:35AM 41.9656 -102.1433 254° West 445 512 34,000  Level Denver Center
10:36AM 41.9258 -102.3078 252° West 442 509 34,000  Level Denver Center
10:37AM 41.8894 -102.4594 252° West 444 511 34,100  Climbing Denver Center
10:38AM 41.8444 -102.6361 251° West 448 516 34,000 -60 Descending Denver Center
10:39AM 41.8081 -102.7864 252° West 445 512 34,000  Level Denver Center
10:40AM 41.7703 -102.9367 251° West 444 511 34,000  Level Denver Center
10:42AM 41.7269 -103.1106 252° West 441 507 34,100  Climbing Denver Center
10:43AM 41.6892 -103.2575 251° West 437 503 34,000 -60 Descending Denver Center
10:44AM 41.6467 -103.4261 251° West 431 496 34,000  Level Denver Center
10:45AM 41.6094 -103.5722 251° West 432 497 34,000  Level Denver Center
10:46AM 41.5647 -103.7442 251° West 436 502 34,000  Level Denver Center
10:47AM 41.5275 -103.8928 252° West 440 506 34,100  Climbing Denver Center
10:48AM 41.4775 -104.0642 249° West 443 510 34,000 -60 Descending Denver Center
10:49AM 41.4236 -104.2053 243° Southwest 444 511 34,000  Level Denver Center
10:50AM 41.3714 -104.3472 244° Southwest 446 513 34,000  Level Denver Center
10:51AM 41.3097 -104.5139 244° Southwest 448 516 34,000  Level Denver Center
10:52AM 41.2567 -104.6583 244° Southwest 452 520 34,100  Climbing Denver Center
10:53AM 41.1947 -104.8231 243° Southwest 446 513 34,000 -60 Descending Denver Center
10:54AM 41.1408 -104.9625 243° Southwest 444 511 34,000  Level Denver Center
10:55AM 41.0797 -105.1264 244° Southwest 443 510 34,000  Level Denver Center
10:56AM 41.0269 -105.2678 244° Southwest 446 513 34,000  Level Denver Center
10:57AM 40.9625 -105.4306 242° Southwest 448 516 34,000  Level Denver Center
10:58AM 40.9094 -105.5719 244° Southwest 448 516 34,000  Level Denver Center
10:59AM 40.8453 -105.7378 243° Southwest 454 522 34,000  Level Denver Center
11:00AM 40.7911 -105.8744 242° Southwest 458 527 34,000  Level Denver Center
11:01AM 40.7328 -106.0239 243° Southwest 459 528 34,000  Level Denver Center
11:02AM 40.6647 -106.1989 243° Southwest 461 531 34,000  Level Denver Center
11:03AM 40.6089 -106.3422 243° Southwest 459 528 34,000  Level Denver Center
11:04AM 40.5422 -106.5097 242° Southwest 460 529 34,000  Level Denver Center
11:05AM 40.4844 -106.6517 242° Southwest 458 527 34,000  Level Denver Center
11:06AM 40.4228 -106.7958 241° Southwest 456 525 34,000  Level Denver Center
11:07AM 40.3592 -106.9494 242° Southwest 448 516 34,000  Level Denver Center
11:08AM 40.3017 -107.0839 241° Southwest 444 511 34,000  Level Denver Center
11:09AM 40.2336 -107.2422 241° Southwest 446 513 34,000  Level Denver Center
11:10AM 40.1753 -107.3792 241° Southwest 449 517 34,000  Level Denver Center
11:11AM 40.1056 -107.5406 241° Southwest 456 525 34,100  Climbing Denver Center
11:13AM 40.0456 -107.6797 241° Southwest 458 527 34,100 -60 Level Denver Center
11:14AM 39.9747 -107.8411 240° Southwest 459 528 34,000 -60 Descending Denver Center
11:15AM 39.9136 -107.9800 240° Southwest 461 531 34,000  Level Denver Center
11:16AM 39.8444 -108.1408 241° Southwest 455 524 34,000  Level Denver Center
11:17AM 39.7706 -108.3025 239° Southwest 469 540 34,000  Level Denver Center
11:18AM 39.7025 -108.4608 241° Southwest 460 529 34,000  Level Denver Center
11:19AM 39.6419 -108.5956 240° Southwest 453 521 34,000  Level Denver Center
11:20AM 39.5686 -108.7575 240° Southwest 449 517 34,000  Level Denver Center
11:21AM 39.5072 -108.8944 240° Southwest 452 520 34,000  Level Denver Center
11:22AM 39.4478 -109.0267 240° Southwest 444 511 34,000  Level Denver Center
11:23AM 39.3786 -109.1775 239° Southwest 437 503 34,000  Level Denver Center
11:24AM 39.3500 -109.2428 240° Southwest 436 502 34,000  Level Salt Lake Center
11:24AM 39.3203 -109.3078 239° Southwest 438 504 34,000  Level Denver Center
11:25AM 39.2497 -109.4581 239° Southwest 438 504 34,000  Level Denver Center
11:26AM 39.2211 -109.5231 240° Southwest 437 503 34,000  Level Salt Lake Center
11:27AM 39.1622 -109.6525 240° Southwest 436 502 34,000  Level Salt Lake Center
11:27AM 39.1217 -109.7378 239° Southwest 437 503 34,000  Level Denver Center
11:28AM 39.0642 -109.8672 240° Southwest 435 501 34,000  Level Denver Center
11:29AM 39.0333 -109.9303 238° Southwest 435 501 34,000  Level Salt Lake Center
11:30AM 38.9578 -110.0756 236° Southwest 436 502 34,000  Level Salt Lake Center
11:30AM 38.9214 -110.1342 231° Southwest 437 503 34,000  Level Denver Center
11:31AM 38.8836 -110.1922 230° Southwest 439 505 34,000  Level Salt Lake Center
11:31AM 38.8369 -110.2719 233° Southwest 439 505 34,000  Level Denver Center
11:32AM 38.7672 -110.3917 233° Southwest 438 504 34,000  Level Denver Center
11:33AM 38.7358 -110.4542 237° Southwest 437 503 34,000  Level Salt Lake Center
11:34AM 38.6681 -110.5764 235° Southwest 438 504 34,000  Level Salt Lake Center
11:35AM 38.5894 -110.7189 235° Southwest 438 504 34,000  Level Salt Lake Center
11:36AM 38.5228 -110.8408 235° Southwest 437 503 34,000  Level Salt Lake Center
11:37AM 38.4425 -110.9825 234° Southwest 438 504 34,000  Level Salt Lake Center
11:38AM 38.3706 -111.1067 234° Southwest 437 503 34,000  Level Salt Lake Center
11:39AM 38.3261 -111.1797 232° Southwest 436 502 34,000  Level Denver Center
11:39AM 38.3003 -111.2317 238° Southwest 434 499 34,000  Level Salt Lake Center
11:40AM 38.2281 -111.3544 233° Southwest 434 499 34,000  Level Salt Lake Center
11:41AM 38.1564 -111.4769 233° Southwest 433 498 34,000 -300 Level Salt Lake Center
11:42AM 38.0711 -111.6236 234° Southwest 433 498 33,500 -780 Descending Salt Lake Center
11:43AM 38.0003 -111.7450 234° Southwest 430 495 32,500 -780 Descending Salt Lake Center
11:44AM 37.9283 -111.8664 233° Southwest 431 496 32,000 -300 Descending Salt Lake Center
11:45AM 37.8569 -111.9867 233° Southwest 428 493 32,000  Level Salt Lake Center
11:46AM 37.7878 -112.1036 233° Southwest 417 480 32,000  Level Salt Lake Center
11:47AM 37.7178 -112.2211 233° Southwest 418 481 32,000  Level Salt Lake Center
11:48AM 37.6333 -112.3633 233° Southwest 421 484 32,000  Level Salt Lake Center
11:49AM 37.5567 -112.4889 232° Southwest 441 507 32,000  Level Salt Lake Center
11:50AM 37.4789 -112.6172 233° Southwest 454 522 32,000 -360 Level Salt Lake Center
11:51AM 37.4022 -112.7419 232° Southwest 447 514 31,300 -720 Descending Salt Lake Center
11:52AM 37.3711 -112.7914 232° Southwest 443 510 30,900 -1,080 Descending Los Angeles Center
11:53AM 37.2836 -112.9367 233° Southwest 431 496 29,700 -1,080 Descending Los Angeles Center
11:54AM 37.2142 -113.0528 233° Southwest 418 481 28,700 -960 Descending Los Angeles Center
11:55AM 37.1447 -113.1664 233° Southwest 412 474 27,800 -900 Descending Los Angeles Center
11:56AM 37.1167 -113.2106 231° Southwest 409 471 27,400 -1,020 Descending Salt Lake Center
11:56AM 37.0767 -113.2775 233° Southwest 405 466 26,800 -1,080 Descending Los Angeles Center
11:57AM 37.0069 -113.3900 232° Southwest 407 468 25,800 -960 Descending Los Angeles Center
11:58AM 36.9356 -113.5022 232° Southwest 412 474 24,900 -900 Descending Los Angeles Center
11:59AM 36.8544 -113.6344 233° Southwest 400 460 24,000 -480 Descending Los Angeles Center
12:00PM 36.7892 -113.7422 233° Southwest 391 450 23,900 -540 Descending Los Angeles Center
12:01PM 36.7211 -113.8489 232° Southwest 393 452 22,900 -1,500 Descending Los Angeles Center
12:02PM 36.6536 -113.9533 231° Southwest 390 449 20,800 -1,980 Descending Los Angeles Center
12:03PM 36.5886 -114.0561 232° Southwest 382 440 18,900 -1,920 Descending Los Angeles Center
12:04PM 36.5344 -114.1636 238° Southwest 373 429 16,800 -2,160 Descending Los Angeles Center
12:05PM 36.4767 -114.2903 240° Southwest 366 421 14,400 -2,400 Descending Los Angeles Center
12:06PM 36.4525 -114.3636 248° West 358 412 13,000 -1,860 Descending Los Angeles Center
12:06PM 36.4306 -114.4003 233° Southwest 360 414 12,500 -1,020 Descending Los Angeles Center
12:07PM 36.4031 -114.4528 237° Southwest 343 395 12,100 -540 Descending Los Angeles Center
12:08PM 36.3603 -114.4686 197° South 346 398 12,000 -120 Descending Los Angeles Center
12:08PM 36.3164 -114.4822 194° South 320 368 12,000 -300 Level Los Angeles Center
12:09PM 36.2758 -114.4886 187° South 313 360 11,700 -840 Descending Los Angeles Center
12:09PM 36.2383 -114.5008 195° South 286 329 11,200 -1,080 Descending Los Angeles Center
12:10PM 36.2094 -114.5261 215° Southwest 274 315 10,600 -1,320 Descending Los Angeles Center
12:10PM 36.1931 -114.5589 238° Southwest 261 300 10,000 -1,560 Descending Los Angeles Center
12:11PM 36.1542 -114.6069 225° Southwest 256 295 9,000 -1,440 Descending Los Angeles Center
12:11PM 36.1381 -114.6336 233° Southwest 254 292 8,400 -1,020 Descending Los Angeles Center
12:12PM 36.1083 -114.6731 227° Southwest 254 292 8,000 -420 Descending Los Angeles Center
12:12PM 36.0942 -114.6989 236° Southwest 251 289 8,000 -120 Level Los Angeles Center
12:13PM 36.0658 -114.7417 231° Southwest 253 291 7,900 -600 Descending Los Angeles Center
12:14PM 36.0711 -114.8211 275° West 235 270 7,000 -1,200 Descending Los Angeles Center
12:14PM 36.0739 -114.8522 276° West 221 254 6,300 -1,380 Descending Los Angeles Center
12:15PM 36.0714 -114.8992 266° West 228 262 5,600 -960 Descending Los Angeles Center